createdAt,value
2023-08-11T00:04:15.449Z,46.09
2023-08-11T00:09:16.783Z,45.70
2023-08-11T00:14:18.148Z,45.92
2023-08-11T00:19:19.468Z,45.85
2023-08-11T00:24:20.810Z,45.69
2023-08-11T00:29:22.133Z,45.69
2023-08-11T00:34:23.425Z,45.85
2023-08-11T00:39:24.780Z,45.90
2023-08-11T00:44:26.081Z,46.19
2023-08-11T00:49:27.373Z,46.06
2023-08-11T00:54:28.926Z,46.29
2023-08-11T00:59:30.264Z,46.16
2023-08-11T01:04:31.552Z,46.23
2023-08-11T01:09:32.762Z,46.22
2023-08-11T01:14:38.160Z,46.20
2023-08-11T01:19:39.473Z,46.22
2023-08-11T01:24:40.810Z,46.32
2023-08-11T01:29:42.122Z,46.41
2023-08-11T01:34:43.416Z,46.26
2023-08-11T01:39:44.764Z,46.39
2023-08-11T01:44:46.622Z,46.31
2023-08-11T01:49:48.094Z,45.97
2023-08-11T01:54:49.382Z,45.64
2023-08-11T01:59:51.011Z,45.55
2023-08-11T02:04:52.434Z,45.65
2023-08-11T02:09:55.569Z,45.38
2023-08-11T02:14:56.906Z,45.30
2023-08-11T02:19:59.244Z,45.12
2023-08-11T02:25:00.593Z,45.41
2023-08-11T02:30:02.967Z,45.41
2023-08-11T02:35:04.788Z,45.50
2023-08-11T02:40:10.343Z,45.55
2023-08-11T02:45:12.253Z,45.78
2023-08-11T02:50:14.348Z,45.50
2023-08-11T02:55:16.010Z,45.30
2023-08-11T03:00:17.299Z,45.07
2023-08-11T03:05:18.637Z,45.02
2023-08-11T03:10:19.934Z,44.72
2023-08-11T03:15:21.338Z,44.70
2023-08-11T03:20:22.672Z,44.56
2023-08-11T03:25:24.015Z,44.40
2023-08-11T03:30:25.563Z,44.36
2023-08-11T03:35:26.860Z,44.08
2023-08-11T03:40:29.520Z,43.96
2023-08-11T03:45:30.830Z,43.80
2023-08-11T03:50:32.147Z,43.84
2023-08-11T03:55:33.476Z,43.87
2023-08-11T04:00:34.813Z,43.84
2023-08-11T04:05:38.835Z,43.88
2023-08-11T04:10:40.172Z,44.35
2023-08-11T04:15:41.469Z,44.17
2023-08-11T04:20:42.771Z,44.32
2023-08-11T04:25:44.369Z,44.50
2023-08-11T04:30:45.815Z,44.60
2023-08-11T04:35:47.579Z,44.74
2023-08-11T04:40:51.882Z,44.65
2023-08-11T04:45:53.183Z,44.78
2023-08-11T04:50:57.437Z,44.71
2023-08-11T04:55:58.763Z,45.03
2023-08-11T05:01:00.476Z,45.13
2023-08-11T05:06:03.809Z,45.41
2023-08-11T05:11:06.479Z,45.74
2023-08-11T05:16:07.847Z,46.03
2023-08-11T05:21:09.232Z,46.21
2023-08-11T05:26:10.527Z,46.32
2023-08-11T05:31:12.057Z,46.38
2023-08-11T05:36:13.351Z,46.23
2023-08-11T05:41:14.674Z,46.24
2023-08-11T05:46:16.136Z,46.42
2023-08-11T05:51:17.576Z,46.17
2023-08-11T05:56:18.877Z,46.17
2023-08-11T06:01:20.204Z,46.03
2023-08-11T06:06:21.526Z,46.00
2023-08-11T06:11:22.818Z,45.65
2023-08-11T06:16:24.249Z,45.06
2023-08-11T06:21:25.624Z,44.46
2023-08-11T06:26:26.967Z,43.85
2023-08-11T06:31:28.352Z,43.38
2023-08-11T06:36:30.223Z,43.52
2023-08-11T06:41:31.554Z,43.31
2023-08-11T06:46:32.863Z,43.71
2023-08-11T06:51:34.174Z,43.91
2023-08-11T06:56:35.512Z,43.78
2023-08-11T07:01:36.859Z,43.96
2023-08-11T07:06:38.241Z,44.22
2023-08-11T07:11:39.536Z,44.23
2023-08-11T07:16:40.897Z,44.25
2023-08-11T07:21:42.196Z,44.19
2023-08-11T07:26:43.487Z,44.29
2023-08-11T07:31:44.834Z,44.06
2023-08-11T07:36:46.212Z,43.91
2023-08-11T07:41:47.728Z,43.83
2023-08-11T07:46:49.133Z,43.69
2023-08-11T07:51:50.516Z,43.51
2023-08-11T07:56:51.842Z,43.71
2023-08-11T08:06:54.750Z,43.87
2023-08-11T08:11:56.043Z,43.92
2023-08-11T08:16:59.461Z,44.23
2023-08-11T08:22:00.785Z,43.74
2023-08-11T08:27:02.102Z,43.22
2023-08-11T08:32:03.429Z,43.39
2023-08-11T08:37:04.798Z,43.34
2023-08-11T08:42:06.107Z,43.07
2023-08-11T08:47:07.698Z,42.48
2023-08-11T08:52:09.246Z,42.53
2023-08-11T08:57:12.302Z,41.90
2023-08-11T09:02:15.751Z,41.70
2023-08-11T09:07:20.101Z,41.03
2023-08-11T09:12:26.814Z,41.12
2023-08-11T09:17:28.328Z,40.64
2023-08-11T09:22:33.508Z,40.56
2023-08-11T09:27:34.911Z,40.44
2023-08-11T09:32:36.248Z,40.49
2023-08-11T09:37:37.962Z,39.94
2023-08-11T09:42:39.434Z,39.95
2023-08-11T09:47:41.022Z,39.63
2023-08-11T09:52:42.674Z,39.49
2023-08-11T09:57:44.131Z,39.42
2023-08-11T10:02:47.177Z,39.13
2023-08-11T10:07:48.518Z,38.71
2023-08-11T10:12:53.017Z,38.47
2023-08-11T10:17:55.136Z,38.46
2023-08-11T10:22:57.131Z,38.74
2023-08-11T10:27:58.434Z,38.51
2023-08-11T10:33:09.258Z,38.32
2023-08-11T10:38:11.358Z,38.55
2023-08-11T10:43:12.655Z,38.50
2023-08-11T10:48:13.950Z,38.40
2023-08-11T10:53:20.571Z,37.96
2023-08-11T10:58:23.127Z,37.83
2023-08-11T11:03:24.429Z,37.73
2023-08-11T11:08:25.751Z,37.65
2023-08-11T11:13:27.040Z,37.50
2023-08-11T11:18:28.348Z,37.31
2023-08-11T11:23:29.639Z,37.67
2023-08-11T11:28:31.499Z,37.02
2023-08-11T11:33:32.863Z,36.94
2023-08-11T11:38:34.179Z,37.10
2023-08-11T11:43:35.486Z,37.25
2023-08-11T11:48:36.788Z,36.90
2023-08-11T11:53:39.545Z,36.93
2023-08-11T11:58:40.946Z,36.84
2023-08-11T12:03:42.497Z,36.74
2023-08-11T12:08:44.018Z,36.73
2023-08-11T12:13:47.901Z,36.95
2023-08-11T12:18:49.414Z,36.71
2023-08-11T12:23:50.714Z,36.80
2023-08-11T12:28:52.024Z,36.79
2023-08-11T12:33:53.387Z,37.28
2023-08-11T12:38:54.752Z,37.11
2023-08-11T12:43:56.102Z,37.12
2023-08-11T12:48:57.944Z,37.66
2023-08-11T12:53:59.233Z,37.42
2023-08-11T12:59:00.571Z,37.42
2023-08-11T13:04:02.621Z,37.54
2023-08-11T13:09:03.942Z,37.67
2023-08-11T13:14:05.267Z,37.71
2023-08-11T13:19:06.629Z,37.67
2023-08-11T13:24:08.375Z,37.74
2023-08-11T13:29:10.715Z,37.96
2023-08-11T13:34:12.019Z,37.80
2023-08-11T13:39:13.743Z,37.72
2023-08-11T13:44:15.152Z,37.69
2023-08-11T13:49:16.552Z,38.00
2023-08-11T13:54:17.864Z,38.10
2023-08-11T13:59:19.152Z,37.99
2023-08-11T14:04:20.457Z,38.18
2023-08-11T14:09:21.773Z,37.95
2023-08-11T14:14:23.074Z,38.22
2023-08-11T14:19:24.370Z,38.33
2023-08-11T14:24:25.680Z,38.08
2023-08-11T14:29:26.988Z,38.34
2023-08-11T14:34:28.274Z,38.48
2023-08-11T14:39:29.585Z,38.37
2023-08-11T14:44:30.971Z,38.51
2023-08-11T14:49:32.315Z,38.54
2023-08-11T14:54:33.627Z,38.47
2023-08-11T14:59:34.934Z,38.48
2023-08-11T15:04:36.251Z,38.82
2023-08-11T15:09:37.591Z,38.78
2023-08-11T15:14:38.893Z,39.24
2023-08-11T15:19:40.192Z,39.33
2023-08-11T15:24:41.484Z,39.40
2023-08-11T15:29:42.901Z,39.63
2023-08-11T15:34:44.318Z,39.52
2023-08-11T15:39:45.655Z,39.50
2023-08-11T15:44:47.370Z,39.64
2023-08-11T15:49:48.658Z,39.96
2023-08-11T15:54:49.945Z,39.71
2023-08-11T15:59:51.230Z,40.06
2023-08-11T16:04:52.826Z,40.24
2023-08-11T16:09:54.158Z,40.46
2023-08-11T16:14:55.521Z,40.17
2023-08-11T16:19:56.888Z,40.16
2023-08-11T16:24:58.178Z,40.39
2023-08-11T16:29:59.904Z,40.55
2023-08-11T16:35:01.426Z,40.35
2023-08-11T16:40:03.719Z,40.59
2023-08-11T16:45:05.210Z,40.61
2023-08-11T16:50:07.905Z,40.30
2023-08-11T16:55:09.306Z,40.67
2023-08-11T17:00:11.988Z,40.52
2023-08-11T17:05:13.357Z,40.57
2023-08-11T17:10:14.880Z,40.50
2023-08-11T17:15:17.873Z,40.76
2023-08-11T17:20:19.259Z,40.85
2023-08-11T17:25:21.466Z,40.78
2023-08-11T17:30:22.851Z,41.12
2023-08-11T17:35:24.247Z,41.08
2023-08-11T17:40:25.544Z,41.12
2023-08-11T17:45:26.909Z,40.86
2023-08-11T17:50:28.243Z,41.13
2023-08-11T17:55:29.547Z,41.21
2023-08-11T18:00:30.879Z,41.21
2023-08-11T18:05:32.191Z,41.41
2023-08-11T18:10:33.507Z,41.52
2023-08-11T18:15:34.860Z,41.56
2023-08-11T18:20:36.165Z,41.44
2023-08-11T18:25:37.613Z,41.75
2023-08-11T18:30:39.719Z,41.91
2023-08-11T18:35:41.482Z,41.89
2023-08-11T18:40:42.795Z,42.35
2023-08-11T18:45:44.083Z,42.19
2023-08-11T18:50:45.941Z,42.46
2023-08-11T18:55:47.244Z,43.16
2023-08-11T19:00:48.536Z,43.25
2023-08-11T19:05:49.838Z,43.76
2023-08-11T19:10:51.134Z,43.55
2023-08-11T19:15:52.423Z,43.63
2023-08-11T19:20:53.743Z,43.98
2023-08-11T19:25:55.038Z,44.18
2023-08-11T19:30:56.404Z,44.57
2023-08-11T19:35:57.713Z,44.96
2023-08-11T19:40:59.018Z,45.33
2023-08-11T19:46:00.349Z,45.45
2023-08-11T19:51:01.666Z,45.91
2023-08-11T19:56:02.971Z,45.71
2023-08-11T20:01:06.848Z,45.94
2023-08-11T20:06:08.226Z,45.70
2023-08-11T20:11:09.518Z,45.78
2023-08-11T20:16:10.945Z,45.81
2023-08-11T20:21:12.284Z,45.80
2023-08-11T20:26:13.604Z,46.13
2023-08-11T20:31:15.085Z,46.05
2023-08-11T20:36:16.400Z,46.26
2023-08-11T20:41:17.703Z,46.47
2023-08-11T20:46:19.360Z,46.64
2023-08-11T20:51:20.671Z,46.89
2023-08-11T20:56:21.975Z,47.65
2023-08-11T21:01:23.375Z,47.75
2023-08-11T21:06:24.674Z,47.75
2023-08-11T21:11:25.971Z,47.90
2023-08-11T21:16:27.371Z,47.99
2023-08-11T21:21:28.685Z,48.49
2023-08-11T21:26:31.322Z,48.12
2023-08-11T21:31:32.712Z,47.99
2023-08-11T21:36:34.190Z,48.41
2023-08-11T21:41:36.047Z,48.08
2023-08-11T21:46:37.364Z,48.44
2023-08-11T21:51:38.709Z,48.71
2023-08-11T21:56:40.041Z,48.51
2023-08-11T22:01:41.940Z,49.02
2023-08-11T22:06:43.318Z,48.81
2023-08-11T22:11:44.639Z,49.04
2023-08-11T22:16:45.985Z,48.77
2023-08-11T22:21:47.291Z,49.13
2023-08-11T22:26:48.592Z,49.14
2023-08-11T22:31:49.938Z,49.31
2023-08-11T22:36:52.288Z,49.35
2023-08-11T22:41:53.770Z,49.65
2023-08-11T22:46:55.104Z,49.82
2023-08-11T22:51:56.398Z,49.52
2023-08-11T22:56:57.711Z,49.95
2023-08-11T23:01:59.054Z,49.90
2023-08-11T23:07:00.417Z,49.77
2023-08-11T23:12:04.347Z,49.76
2023-08-11T23:17:06.205Z,49.93
2023-08-11T23:22:07.504Z,49.86
2023-08-11T23:27:09.153Z,49.84
2023-08-11T23:32:10.901Z,50.00
2023-08-11T23:37:12.532Z,50.01
2023-08-11T23:42:15.421Z,49.91
2023-08-11T23:47:16.767Z,50.06
2023-08-11T23:52:19.391Z,49.93
2023-08-11T23:57:22.841Z,49.94
